Time;durP1;ratioP1;P1;durP2;ratioP2;P2;SDS_P1;SDS_P2;PMS_P1;PMS_P2;Temp;Humidity;BMP_temperature;BMP_pressure;BME280_temperature;BME280_humidity;BME280_pressure;Samples;Min_cycle;Max_cycle;Signal;HPM_P1;HPM_P2
2022/05/03 00:00:09;;;;;;;2.78;2.13;;;;;;;20.44;40.04;96511.47;5013355;28;20026;-31
2022/05/03 00:03:05;;;;;;;5.10;2.35;;;;;;;20.41;40.18;96507.69;5013078;28;20084;-33
2022/05/03 00:06:01;;;;;;;4.05;2.40;;;;;;;20.43;40.17;96509.97;5013275;28;20034;-31
2022/05/03 00:08:46;;;;;;;3.15;2.03;;;;;;;20.34;40.23;96510.88;5013456;28;20026;-31
2022/05/03 00:11:31;;;;;;;3.65;2.20;;;;;;;20.39;40.16;96507.44;5013372;28;20033;-31
2022/05/03 00:14:18;;;;;;;2.75;2.10;;;;;;;20.37;40.21;96507.19;5013255;28;20018;-31
2022/05/03 00:16:45;;;;;;;2.63;2.05;;;;;;;20.38;40.12;96505.19;5013465;28;20408;-31
2022/05/03 00:19:11;;;;;;;2.00;1.80;;;;;;;20.40;40.04;96500.66;5011827;28;20491;-31
2022/05/03 00:21:38;;;;;;;2.40;1.98;;;;;;;20.37;40.08;96506.41;5013128;28;20037;-33
2022/05/03 00:24:05;;;;;;;2.67;2.13;;;;;;;20.34;39.91;96505.38;5013235;28;20029;-31
2022/05/03 00:26:31;;;;;;;3.42;2.30;;;;;;;20.42;39.96;96509.19;5013128;28;20401;-31
2022/05/03 00:28:58;;;;;;;3.67;2.15;;;;;;;20.41;39.86;96502.19;5012853;28;20026;-31
2022/05/03 00:31:26;;;;;;;2.65;2.10;;;;;;;20.42;39.96;96497.44;5013026;28;20034;-31
2022/05/03 00:33:54;;;;;;;4.30;2.35;;;;;;;20.34;40.03;96490.84;5012947;28;20711;-31
2022/05/03 00:36:20;;;;;;;3.17;2.40;;;;;;;20.38;39.86;96497.66;5012990;28;20029;-31
2022/05/03 00:38:45;;;;;;;4.03;2.25;;;;;;;20.41;39.91;96498.66;5014393;28;20014;-34
2022/05/03 00:41:17;;;;;;;3.85;2.17;;;;;;;20.35;39.98;96498.66;5016457;28;20033;-31
2022/05/03 00:44:03;;;;;;;3.08;2.30;;;;;;;20.40;39.80;96491.66;5016391;28;20075;-31
2022/05/03 00:46:36;;;;;;;2.38;2.10;;;;;;;20.39;39.79;96493.66;5016537;28;20550;-31
2022/05/03 00:49:18;;;;;;;2.85;2.58;;;;;;;20.36;39.83;96493.88;5016114;28;20046;-30
2022/05/03 00:52:28;;;;;;;3.47;2.47;;;;;;;20.32;39.92;96494.06;5016506;28;20523;-31
2022/05/03 00:55:08;;;;;;;2.58;2.38;;;;;;;20.38;39.83;96496.91;4975092;28;20398;-32
2022/05/03 00:57:56;;;;;;;2.90;2.50;;;;;;;20.35;39.86;96498.66;4975069;28;20035;-31
2022/05/03 01:00:25;;;;;;;3.40;2.80;;;;;;;20.34;39.87;96496.34;4975347;28;20042;-31
2022/05/03 01:03:18;;;;;;;2.45;2.20;;;;;;;20.33;39.85;96490.09;4974917;28;20031;-31
2022/05/03 01:06:07;;;;;;;3.65;2.13;;;;;;;20.32;39.89;96494.06;4975194;28;20117;-31
2022/05/03 01:08:41;;;;;;;2.55;2.35;;;;;;;20.38;39.65;96492.16;4975063;28;20026;-33
2022/05/03 01:11:20;;;;;;;3.45;2.22;;;;;;;20.34;39.82;96493.59;4974902;28;20030;-31
2022/05/03 01:14:00;;;;;;;2.30;2.10;;;;;;;20.30;39.83;96482.78;4975016;28;20089;-31
2022/05/03 01:16:34;;;;;;;2.70;2.50;;;;;;;20.28;39.88;96482.50;4974766;28;20023;-31
2022/05/03 01:19:22;;;;;;;4.00;2.28;;;;;;;20.33;39.79;96484.56;4974640;28;20453;-33
2022/05/03 01:22:17;;;;;;;3.45;2.60;;;;;;;20.26;39.94;96482.28;4974741;28;20034;-31
2022/05/03 01:25:04;;;;;;;2.80;2.50;;;;;;;20.28;39.84;96479.75;4981039;28;20030;-31
2022/05/03 01:27:49;;;;;;;3.28;2.47;;;;;;;20.19;39.97;96485.47;5015553;28;20072;-31
2022/05/03 01:30:17;;;;;;;4.75;2.67;;;;;;;20.22;39.73;96492.75;5015815;28;20468;-31
2022/05/03 01:32:44;;;;;;;3.15;2.60;;;;;;;20.17;39.95;96487.94;5015582;28;20026;-31
2022/05/03 01:35:13;;;;;;;4.10;2.72;;;;;;;20.18;40.01;96483.94;5015458;28;20033;-31
2022/05/03 01:37:48;;;;;;;4.63;3.03;;;;;;;20.14;39.88;96483.44;5014198;28;20365;-31
2022/05/03 01:40:23;;;;;;;2.63;2.35;;;;;;;20.20;39.82;96484.22;5015436;28;20021;-31
2022/05/03 01:43:07;;;;;;;3.88;2.88;;;;;;;20.19;39.82;96485.47;5015519;28;20021;-31
2022/05/03 01:45:43;;;;;;;3.08;2.65;;;;;;;20.24;39.65;96484.75;5013920;28;20026;-31
2022/05/03 01:48:24;;;;;;;3.30;2.75;;;;;;;20.25;39.65;96480.75;5015237;28;20048;-32
2022/05/03 01:50:59;;;;;;;2.83;2.38;;;;;;;20.19;39.85;96485.47;5014982;28;20026;-31
2022/05/03 01:53:40;;;;;;;2.97;2.45;;;;;;;20.19;39.64;96485.47;5015083;28;20468;-31
2022/05/03 01:56:19;;;;;;;3.00;2.70;;;;;;;20.17;39.73;96481.69;5015117;28;20108;-30
2022/05/03 01:59:15;;;;;;;3.13;2.78;;;;;;;20.21;39.62;96482.97;5014964;28;20022;-31
2022/05/03 02:01:40;;;;;;;2.70;2.50;;;;;;;20.20;39.58;96483.47;5015293;28;20065;-33
2022/05/03 02:04:33;;;;;;;3.00;2.53;;;;;;;20.25;39.46;96482.75;5014999;28;20065;-31
2022/05/03 02:07:08;;;;;;;3.33;2.80;;;;;;;20.16;39.71;96489.19;5014824;28;20025;-31
2022/05/03 02:09:52;;;;;;;2.83;2.33;;;;;;;20.15;39.55;96473.19;5013608;28;20137;-31
2022/05/03 02:12:18;;;;;;;;;;;;;;;20.18;39.52;96483.94;5015201;28;20034;-32
2022/05/03 02:14:53;;;;;;;4.20;2.60;;;;;;;20.20;39.42;96484.22;5014836;28;20000;-31
2022/05/03 02:17:43;;;;;;;5.00;3.05;;;;;;;20.13;39.52;96481.16;5014638;28;20028;-32
2022/05/03 02:20:29;;;;;;;2.60;2.40;;;;;;;20.20;39.41;96483.47;5014509;28;20026;-32
2022/05/03 02:23:05;;;;;;;3.30;2.60;;;;;;;20.13;39.46;96486.66;5014711;28;20049;-31
2022/05/03 02:25:55;;;;;;;4.30;2.50;;;;;;;20.14;39.38;96483.44;5014412;28;20490;-30
2022/05/03 02:28:36;;;;;;;2.97;2.60;;;;;;;20.08;39.52;96474.34;5014654;28;20036;-30
2022/05/03 02:31:04;;;;;;;3.08;2.72;;;;;;;20.09;39.28;96475.88;5014656;28;20057;-31
2022/05/03 02:33:37;;;;;;;3.22;2.60;;;;;;;20.09;39.43;96478.63;5014305;28;20038;-31
2022/05/03 02:36:07;;;;;;;2.90;2.60;;;;;;;20.13;39.46;96481.16;5014292;28;20487;-31
2022/05/03 02:38:48;;;;;;;3.35;2.70;;;;;;;20.19;39.17;96479.19;5014398;28;20543;-31
2022/05/03 02:41:17;;;;;;;5.30;2.60;;;;;;;20.06;39.29;96472.09;5014515;28;20057;-31
2022/05/03 02:43:45;;;;;;;5.55;2.45;;;;;;;20.07;39.15;96479.09;5014123;28;20123;-31
2022/05/03 02:47:03;;;;;;;3.17;2.65;;;;;;;20.05;39.35;96475.31;5014467;28;20033;-31
2022/05/03 02:49:29;;;;;;;3.67;2.75;;;;;;;20.06;39.28;96476.84;4973052;28;20050;-31
2022/05/03 02:52:09;;;;;;;3.58;2.83;;;;;;;20.08;39.13;96469.59;4973029;28;20023;-31
2022/05/03 02:54:52;;;;;;;3.33;2.60;;;;;;;20.09;39.09;96473.13;4973146;28;20039;-32
2022/05/03 02:57:42;;;;;;;4.05;2.72;;;;;;;20.07;39.26;96467.34;4973139;28;20110;-31
2022/05/03 03:03:08;;;;;;;3.88;2.80;;;;;;;20.05;39.13;96467.06;4972709;28;20037;-31
2022/05/03 03:05:42;;;;;;;2.90;2.50;;;;;;;20.01;39.09;96461.03;4972858;28;20051;-31
2022/05/03 03:08:13;;;;;;;3.03;2.45;;;;;;;20.11;38.96;96467.13;4972715;28;20068;-31
2022/05/03 03:11:09;;;;;;;3.55;2.70;;;;;;;20.03;38.89;96470.31;4972646;28;20078;-30
2022/05/03 03:14:01;;;;;;;3.65;2.80;;;;;;;20.02;38.98;96465.31;4972582;28;20050;-31
2022/05/03 03:16:31;;;;;;;3.88;2.97;;;;;;;20.06;38.91;96474.09;4943481;28;20035;-31
2022/05/03 03:19:14;;;;;;;5.70;2.70;;;;;;;20.01;38.85;96472.81;4975402;28;20031;-31
2022/05/03 03:21:47;;;;;;;3.80;2.67;;;;;;;20.04;38.71;96473.81;5013902;28;20033;-31
2022/05/03 03:24:15;;;;;;;2.80;2.60;;;;;;;20.05;38.77;96469.81;5013715;28;20025;-31
2022/05/03 03:26:43;;;;;;;5.22;2.85;;;;;;;20.00;38.74;96470.53;5009703;28;20028;-31
2022/05/03 03:29:14;;;;;;;3.00;2.70;;;;;;;20.01;38.61;96469.31;5011492;28;20033;-31
2022/05/03 03:31:42;;;;;;;2.88;2.65;;;;;;;19.98;38.70;96471.03;5011664;28;20024;-31
2022/05/03 03:34:11;;;;;;;3.47;2.70;;;;;;;20.03;38.72;96467.56;5011610;28;20491;-31
2022/05/03 03:36:37;;;;;;;2.97;2.67;;;;;;;19.94;38.76;96462.22;5011368;28;20017;-32
2022/05/03 03:39:03;;;;;;;3.30;2.85;;;;;;;19.93;38.57;96471.72;5010115;28;20101;-31
2022/05/03 03:41:29;;;;;;;3.22;2.70;;;;;;;19.95;38.58;96471.25;5011610;28;20240;-31
2022/05/03 03:43:54;;;;;;;3.38;2.70;;;;;;;19.98;38.64;96468.28;5011398;28;20089;-30
2022/05/03 03:46:21;;;;;;;3.90;3.20;;;;;;;19.93;38.59;96465.47;5011255;28;20037;-31
2022/05/03 03:48:46;;;;;;;3.08;2.63;;;;;;;19.93;38.67;96465.47;5011000;28;20042;-31
2022/05/03 03:51:14;;;;;;;3.78;2.85;;;;;;;19.94;38.59;96476.00;5011521;28;20025;-30
2022/05/03 03:53:40;;;;;;;2.92;2.45;;;;;;;19.91;38.56;96476.97;5011462;28;20029;-30
2022/05/03 03:56:06;;;;;;;4.32;3.17;;;;;;;19.92;38.43;96472.22;5011221;28;20030;-31
2022/05/03 03:58:33;;;;;;;4.53;2.95;;;;;;;19.89;38.54;96479.47;5010963;28;20037;-30
2022/05/03 04:00:59;;;;;;;3.65;2.70;;;;;;;19.96;38.35;96479.00;5011022;28;20041;-32
2022/05/03 04:03:26;;;;;;;3.15;2.85;;;;;;;19.95;38.29;96477.50;5011406;28;20029;-31
2022/05/03 04:05:52;;;;;;;3.78;2.58;;;;;;;19.87;38.57;96478.44;5011038;28;20029;-31
2022/05/03 04:08:17;;;;;;;4.68;2.72;;;;;;;19.92;38.36;96477.72;5025673;28;20080;-30
2022/05/03 04:10:43;;;;;;;3.17;2.65;;;;;;;19.91;38.39;96482.47;5011234;28;20032;-32
2022/05/03 04:13:13;;;;;;;2.85;2.30;;;;;;;19.93;38.46;96477.22;5026924;28;20439;-31
2022/05/03 04:15:39;;;;;;;3.83;2.67;;;;;;;19.92;38.46;96477.72;5015042;28;20034;-31
2022/05/03 04:18:08;;;;;;;2.95;2.67;;;;;;;19.96;38.41;96478.25;5014963;28;20036;-30
2022/05/03 04:20:34;;;;;;;3.30;2.75;;;;;;;19.86;38.49;96482.44;5015030;28;20072;-31
2022/05/03 04:23:01;;;;;;;3.15;2.33;;;;;;;19.86;38.65;96483.19;5014710;28;20460;-31
2022/05/03 04:25:26;;;;;;;3.60;2.83;;;;;;;19.79;38.54;96485.59;5014680;28;20025;-31
2022/05/03 04:27:52;;;;;;;2.95;2.65;;;;;;;19.87;38.38;96497.69;5014219;28;20032;-31
2022/05/03 04:30:17;;;;;;;4.47;2.80;;;;;;;19.86;38.50;96485.94;5014607;28;20409;-31
2022/05/03 04:32:43;;;;;;;2.83;2.60;;;;;;;19.88;38.46;96490.97;5014408;28;20813;-31
2022/05/03 04:35:09;;;;;;;2.97;2.67;;;;;;;19.84;38.55;96490.41;5014705;28;20037;-31
2022/05/03 04:37:35;;;;;;;3.30;2.85;;;;;;;19.81;38.65;96489.38;5014392;28;20026;-31
2022/05/03 04:40:00;;;;;;;4.57;2.80;;;;;;;19.77;38.79;96491.59;5028318;28;20085;-32
2022/05/03 04:42:26;;;;;;;3.42;2.72;;;;;;;19.80;38.67;96487.88;5014639;28;20427;-30
2022/05/03 04:44:51;;;;;;;5.18;3.22;;;;;;;19.85;38.63;96489.94;5014516;28;20045;-32
2022/05/03 04:47:17;;;;;;;4.72;2.88;;;;;;;19.80;38.66;96487.88;5014537;28;20431;-31
2022/05/03 04:49:43;;;;;;;4.20;2.55;;;;;;;19.84;38.68;96493.16;5014015;28;20025;-31
2022/05/03 04:52:09;;;;;;;5.07;2.38;;;;;;;19.78;38.93;96495.13;5014301;28;20033;-31
2022/05/03 04:54:38;;;;;;;4.78;2.83;;;;;;;19.81;38.87;96489.38;5014220;28;20022;-31
2022/05/03 04:57:06;;;;;;;4.78;2.70;;;;;;;19.83;38.88;96497.16;5014239;28;20116;-31
2022/05/03 04:59:33;;;;;;;4.75;2.78;;;;;;;19.84;38.77;96501.41;5014282;28;20061;-31
2022/05/03 05:01:58;;;;;;;4.93;2.70;;;;;;;19.78;39.00;96500.63;5013791;28;20124;-31
2022/05/03 05:04:23;;;;;;;4.72;2.80;;;;;;;19.77;39.12;96504.59;5014305;28;20125;-31
2022/05/03 05:06:49;;;;;;;4.90;3.10;;;;;;;19.83;39.16;96505.41;5014130;28;20109;-31
2022/05/03 05:09:15;;;;;;;3.35;2.35;;;;;;;19.80;39.16;96511.88;5014008;28;20391;-31
2022/05/03 05:11:40;;;;;;;4.55;2.95;;;;;;;19.82;39.26;96512.91;5014080;28;20473;-31
2022/05/03 05:14:06;;;;;;;4.70;2.50;;;;;;;19.82;39.22;96512.16;5013559;28;20041;-31
2022/05/03 05:16:31;;;;;;;4.75;3.13;;;;;;;19.67;39.59;96513.00;5045802;28;20034;-31
2022/05/03 05:18:57;;;;;;;4.35;2.72;;;;;;;19.76;39.28;96506.59;5013791;28;20060;-31
2022/05/03 05:21:22;;;;;;;5.05;2.90;;;;;;;19.74;39.57;96520.09;5013769;28;20788;-31
2022/05/03 05:23:48;;;;;;;3.90;3.10;;;;;;;19.75;39.48;96518.84;5013020;28;20029;-31
2022/05/03 05:26:14;;;;;;;3.10;2.63;;;;;;;19.81;39.40;96511.38;5012043;28;20036;-31
2022/05/03 05:28:39;;;;;;;3.78;3.00;;;;;;;19.75;39.57;96518.09;5013781;28;20052;-30
2022/05/03 05:31:05;;;;;;;4.53;2.90;;;;;;;19.73;39.77;96519.34;5015718;28;20029;-31
2022/05/03 05:33:30;;;;;;;3.33;2.80;;;;;;;19.72;39.85;96520.56;5015576;28;20495;-31
2022/05/03 05:35:56;;;;;;;4.88;2.60;;;;;;;19.74;39.87;96517.34;5015430;28;20033;-32
2022/05/03 05:38:22;;;;;;;4.85;2.80;;;;;;;19.71;39.89;96524.56;5015461;28;20026;-31
2022/05/03 05:40:48;;;;;;;4.60;2.63;;;;;;;19.76;39.76;96517.63;5015324;28;20479;-31
2022/05/03 05:43:14;;;;;;;3.35;2.75;;;;;;;19.72;39.99;96520.56;5015594;28;20029;-31
2022/05/03 05:45:40;;;;;;;3.42;2.90;;;;;;;19.75;40.10;96529.09;5014980;28;20030;-31
2022/05/03 05:48:06;;;;;;;4.30;2.67;;;;;;;19.78;40.08;96528.13;5015496;28;20377;-32
2022/05/03 05:50:32;;;;;;;3.13;2.80;;;;;;;19.77;40.04;96523.88;5015118;28;20030;-31
2022/05/03 05:55:44;;;;;;;3.75;2.78;;;;;;;19.74;40.25;96531.09;5015458;28;20032;-31
2022/05/03 05:58:10;;;;;;;4.70;3.08;;;;;;;19.67;40.47;96535.00;5014836;28;20028;-31
2022/05/03 06:00:36;;;;;;;4.13;3.20;;;;;;;19.74;40.59;96539.34;5014981;28;20026;-31
2022/05/03 06:03:01;;;;;;;6.38;3.75;;;;;;;19.66;40.67;96541.75;5014819;28;20445;-30
2022/05/03 06:05:28;;;;;;;5.90;3.20;;;;;;;19.72;40.43;96537.09;5015126;28;20092;-33
2022/05/03 06:07:53;;;;;;;6.35;4.03;;;;;;;19.70;40.21;96536.81;5015107;28;20040;-31
2022/05/03 06:10:23;;;;;;;8.55;5.90;;;;;;;19.69;40.90;96546.28;5014673;28;20030;-31
2022/05/03 06:12:48;;;;;;;6.18;4.30;;;;;;;19.66;41.07;96549.25;5014318;28;20365;-31
2022/05/03 06:15:15;;;;;;;5.50;4.10;;;;;;;19.73;40.76;96549.59;5014353;28;20036;-31
2022/05/03 06:17:41;;;;;;;8.48;4.80;;;;;;;19.66;41.10;96544.50;5014656;28;20030;-31
2022/05/03 06:20:08;;;;;;;4.88;3.92;;;;;;;19.76;40.77;96541.63;5014593;28;20030;-33
2022/05/03 06:22:34;;;;;;;5.63;3.90;;;;;;;19.65;40.97;96540.25;5014343;28;20052;-31
2022/05/03 06:24:59;;;;;;;5.68;3.90;;;;;;;19.72;41.02;96542.59;5014122;28;20468;-31
2022/05/03 06:27:25;;;;;;;5.50;3.75;;;;;;;19.68;41.02;96555.78;5029845;28;20033;-31
2022/05/03 06:29:50;;;;;;;5.45;4.20;;;;;;;18.69;44.13;96550.47;5014371;28;20412;-29
2022/05/03 06:32:16;;;;;;;7.50;4.28;;;;;;;19.11;42.70;96549.31;5013843;28;20476;-29
2022/05/03 06:34:41;;;;;;;5.38;4.13;;;;;;;19.19;42.49;96553.16;5014627;28;20030;-31
2022/05/03 06:37:07;;;;;;;7.05;4.28;;;;;;;19.34;42.29;96546.38;5013249;28;20026;-30
2022/05/03 06:39:35;;;;;;;3.90;3.30;;;;;;;19.36;42.08;96549.41;5014267;28;20161;-30
2022/05/03 06:42:04;;;;;;;4.78;3.65;;;;;;;19.48;41.72;96561.28;5013974;28;20384;-30
2022/05/03 06:44:29;;;;;;;5.63;3.60;;;;;;;19.24;42.36;96552.47;5014173;28;20029;-30
2022/05/03 06:46:56;;;;;;;5.47;3.95;;;;;;;19.29;42.33;96554.53;5014374;28;20052;-32
2022/05/03 06:49:21;;;;;;;5.07;3.50;;;;;;;19.32;42.47;96559.84;5013548;28;20042;-30
2022/05/03 06:51:47;;;;;;;4.55;3.30;;;;;;;19.38;42.31;96557.94;5014284;28;20538;-30
2022/05/03 06:54:12;;;;;;;5.82;3.10;;;;;;;19.47;41.99;96567.25;5013752;28;20029;-30
2022/05/03 06:56:37;;;;;;;4.05;3.40;;;;;;;19.53;41.87;96571.63;5014274;28;20060;-30
2022/05/03 06:59:06;;;;;;;4.40;3.30;;;;;;;19.50;41.88;96571.84;5013966;28;20022;-30
2022/05/03 07:01:32;;;;;;;3.65;3.25;;;;;;;19.45;42.07;96573.25;5013989;28;20022;-30
2022/05/03 07:03:57;;;;;;;5.60;3.78;;;;;;;19.44;42.04;96559.97;5013749;28;20030;-30
2022/05/03 07:06:23;;;;;;;4.05;3.25;;;;;;;19.45;42.47;96562.25;5013545;28;20383;-30
2022/05/03 07:08:49;;;;;;;4.55;3.00;;;;;;;19.46;42.47;96563.00;5013698;28;20026;-30
2022/05/03 07:11:17;;;;;;;4.45;3.10;;;;;;;19.40;42.25;96564.94;5013958;28;20487;-30
2022/05/03 07:13:43;;;;;;;3.60;3.05;;;;;;;19.48;42.20;96555.78;5013798;28;20037;-31
2022/05/03 07:16:08;;;;;;;3.65;3.03;;;;;;;19.48;42.04;96563.28;5013831;28;20396;-30
2022/05/03 07:24:02;;;;;;;4.50;3.15;;;;;;;19.34;42.47;96568.38;5013665;28;20105;-30
2022/05/03 07:26:28;;;;;;;5.70;3.15;;;;;;;19.34;42.78;96567.59;5013654;28;20101;-30
2022/05/03 07:28:53;;;;;;;5.13;2.90;;;;;;;19.41;42.46;96567.19;5013580;28;20030;-29
2022/05/03 07:31:20;;;;;;;5.95;3.75;;;;;;;19.23;43.23;96564.72;5013602;28;20076;-30
2022/05/03 07:33:47;;;;;;;4.30;3.47;;;;;;;19.37;42.79;96572.91;5013343;28;20358;-29
2022/05/03 07:36:12;;;;;;;6.07;3.45;;;;;;;19.21;43.07;96559.69;5013133;28;20036;-30
2022/05/03 07:38:40;;;;;;;6.97;4.10;;;;;;;19.05;43.51;96578.69;5012490;28;20026;-30
2022/05/03 07:41:06;;;;;;;4.53;3.20;;;;;;;19.26;42.90;96566.50;5013223;28;20030;-31
2022/05/03 07:43:32;;;;;;;6.32;3.80;;;;;;;18.98;43.47;96572.38;5013394;28;20036;-30
2022/05/03 07:45:59;;;;;;;4.25;3.03;;;;;;;19.06;43.43;96577.47;5013441;28;20075;-30
2022/05/03 07:48:24;;;;;;;6.20;3.63;;;;;;;18.78;44.09;96582.59;5016105;28;20049;-30
2022/05/03 07:50:49;;;;;;;4.45;3.22;;;;;;;19.00;43.81;96583.66;5017355;28;20038;-30
2022/05/03 07:53:15;;;;;;;4.35;3.03;;;;;;;19.04;43.62;96588.22;5017686;28;20426;-29
2022/05/03 07:55:44;;;;;;;4.90;4.20;;;;;;;18.97;43.76;96584.59;5017356;28;20022;-29
2022/05/03 07:58:09;;;;;;;3.67;3.38;;;;;;;19.19;43.02;96583.41;5017490;28;20026;-30
2022/05/03 08:00:35;;;;;;;7.18;3.70;;;;;;;19.11;43.41;96585.81;5017240;28;20014;-30
2022/05/03 08:03:01;;;;;;;6.60;3.63;;;;;;;19.13;43.19;96585.34;5017273;28;20037;-30
2022/05/03 08:05:26;;;;;;;4.15;3.63;;;;;;;19.23;42.95;96584.72;5017306;28;20022;-30
2022/05/03 08:07:52;;;;;;;5.85;3.47;;;;;;;19.11;43.64;96590.53;5016809;28;20034;-30
2022/05/03 08:10:18;;;;;;;7.18;3.50;;;;;;;18.97;43.76;96587.34;5016769;28;20495;-30
2022/05/03 08:12:43;;;;;;;4.82;3.30;;;;;;;19.12;43.24;96589.31;5016678;28;20034;-30
2022/05/03 08:15:09;;;;;;;4.82;3.60;;;;;;;19.31;43.06;96590.56;5016655;28;20033;-30
2022/05/03 08:17:35;;;;;;;5.18;3.90;;;;;;;19.27;43.21;96595.53;5016895;28;20037;-30
2022/05/03 08:20:02;;;;;;;8.85;4.43;;;;;;;18.88;43.85;96594.97;5016961;28;20061;-31
2022/05/03 08:22:27;;;;;;;4.47;3.67;;;;;;;18.53;45.82;96594.91;5016997;28;20018;-31
2022/05/03 08:24:53;;;;;;;9.60;4.25;;;;;;;18.75;45.08;96594.50;5016815;28;20026;-30
2022/05/03 08:27:19;;;;;;;6.38;3.47;;;;;;;18.75;44.85;96594.50;5016915;28;20109;-30
2022/05/03 08:29:45;;;;;;;6.68;4.15;;;;;;;18.91;44.52;96597.53;5016299;28;20101;-30
2022/05/03 08:32:11;;;;;;;6.13;3.42;;;;;;;18.93;44.22;96597.78;5016603;28;20056;-30
2022/05/03 08:34:36;;;;;;;4.55;3.80;;;;;;;18.64;44.70;96606.09;5016936;28;20022;-30
2022/05/03 08:42:31;;;;;;;6.90;3.50;;;;;;;19.06;43.00;96602.22;5016812;28;20032;-30
2022/05/03 08:44:57;;;;;;;6.38;3.55;;;;;;;18.84;43.78;96608.13;5016542;28;20022;-30
2022/05/03 08:47:25;;;;;;;4.75;3.58;;;;;;;19.23;42.83;96608.72;5016207;28;20050;-31
2022/05/03 08:50:10;;;;;;;4.47;3.40;;;;;;;19.33;42.58;96613.59;5016334;28;20029;-29
2022/05/03 08:52:47;;;;;;;3.67;3.33;;;;;;;19.19;42.27;96617.16;5016371;28;20365;-30
2022/05/03 08:55:13;;;;;;;4.38;3.72;;;;;;;19.13;42.27;96607.31;5016501;28;20032;-30
2022/05/03 08:57:42;;;;;;;4.97;3.30;;;;;;;19.42;41.78;96611.94;5016204;28;20036;-30
2022/05/03 09:00:08;;;;;;;4.65;3.83;;;;;;;19.22;42.22;96612.69;5015557;28;20022;-30
2022/05/03 09:02:34;;;;;;;4.35;3.40;;;;;;;18.89;41.44;96613.72;5016300;28;20036;-32
2022/05/03 09:05:01;;;;;;;4.53;3.67;;;;;;;19.21;41.91;96613.94;5016077;28;20026;-29
2022/05/03 09:07:27;;;;;;;4.57;3.30;;;;;;;19.25;41.70;96620.75;5016016;28;20132;-30
2022/05/03 09:09:55;;;;;;;4.95;3.42;;;;;;;18.99;41.54;96609.63;5016002;28;20034;-30
2022/05/03 09:12:28;;;;;;;5.97;3.50;;;;;;;19.21;42.16;96614.69;5016066;28;20022;-30
2022/05/03 09:14:59;;;;;;;4.93;3.70;;;;;;;19.42;41.47;96612.69;5016001;28;20491;-30
2022/05/03 09:17:43;;;;;;;4.90;3.40;;;;;;;19.48;41.76;96616.28;5015969;28;20030;-30
2022/05/03 09:25:55;;;;;;;3.70;3.30;;;;;;;19.40;41.45;96608.94;5015971;28;20523;-30
2022/05/03 09:28:23;;;;;;;3.67;3.30;;;;;;;19.36;40.92;96615.41;5015788;28;20026;-31
2022/05/03 09:30:50;;;;;;;6.85;3.20;;;;;;;19.52;40.53;96614.13;5015446;28;20392;-29
2022/05/03 09:33:18;;;;;;;4.60;3.38;;;;;;;19.27;41.00;96604.53;5015803;28;20096;-29
2022/05/03 09:35:43;;;;;;;5.80;3.13;;;;;;;19.40;41.07;96604.19;5015521;28;20110;-30
2022/05/03 09:38:09;;;;;;;4.38;3.42;;;;;;;19.52;40.82;96608.63;5015519;28;20106;-29
2022/05/03 09:40:43;;;;;;;4.45;3.72;;;;;;;19.58;41.06;96603.19;5015405;28;20021;-30
2022/05/03 09:43:09;;;;;;;4.97;3.65;;;;;;;19.57;40.79;96607.16;5015378;28;20049;-29
2022/05/03 09:45:35;;;;;;;5.53;3.70;;;;;;;19.58;40.90;96603.94;5015333;28;20026;-30
2022/05/03 09:48:02;;;;;;;5.95;3.35;;;;;;;19.66;40.67;96602.28;5015075;28;20515;-30
2022/05/03 09:50:30;;;;;;;4.97;3.47;;;;;;;19.61;40.76;96607.72;5015225;28;20156;-30
2022/05/03 09:52:57;;;;;;;4.65;3.70;;;;;;;19.62;40.68;96606.50;5015293;28;20076;-31
2022/05/03 09:55:32;;;;;;;6.78;3.78;;;;;;;19.63;40.67;96606.03;5015257;28;20486;-29
2022/05/03 09:58:04;;;;;;;4.93;3.83;;;;;;;19.38;41.29;96601.94;5015120;28;20030;-30
2022/05/03 10:00:34;;;;;;;4.78;3.65;;;;;;;19.66;40.56;96605.03;5015055;28;20061;-30
2022/05/03 10:03:01;;;;;;;4.43;3.50;;;;;;;19.72;40.38;96592.13;5015157;28;20028;-29
2022/05/03 10:05:26;;;;;;;6.70;4.03;;;;;;;19.67;40.56;96600.28;5014854;28;20025;-29
2022/05/03 10:07:53;;;;;;;4.70;3.63;;;;;;;19.77;40.32;96603.69;5014975;28;20341;-30
2022/05/03 10:10:20;;;;;;;6.60;3.85;;;;;;;19.80;40.13;96599.94;5014660;28;20022;-29
2022/05/03 10:12:47;;;;;;;5.30;3.28;;;;;;;19.83;39.95;96601.72;5015014;28;20037;-32
2022/05/03 10:20:35;;;;;;;4.97;3.20;;;;;;;19.81;39.91;96598.69;5014702;28;20026;-32
2022/05/03 10:20:47;;;;;;;4.95;3.30;;;;;;;19.44;39.30;96612.22;5014703;28;20024;-29
2022/05/03 10:23:30;;;;;;;4.57;3.22;;;;;;;19.62;39.67;96598.25;5014618;28;20057;-30
2022/05/03 10:26:05;;;;;;;11.00;3.30;;;;;;;19.68;39.39;96596.31;5014532;28;20157;-30
2022/05/03 10:29:04;;;;;;;5.40;3.10;;;;;;;19.72;39.33;96596.84;5014858;28;20028;-30
2022/05/03 10:31:31;;;;;;;4.43;3.13;;;;;;;19.81;39.24;96598.69;5014669;28;20030;-30
2022/05/03 10:33:57;;;;;;;4.03;3.17;;;;;;;19.70;39.37;96591.84;5014718;28;20369;-31
2022/05/03 10:36:32;;;;;;;3.97;3.22;;;;;;;19.77;39.30;96598.16;5014423;28;20085;-29
2022/05/03 10:39:19;;;;;;;5.22;3.28;;;;;;;19.82;39.17;96592.72;5014345;28;20026;-30
2022/05/03 10:41:53;;;;;;;5.10;3.13;;;;;;;19.84;38.83;96592.22;5014679;28;20033;-30
2022/05/03 10:45:04;;;;;;;5.07;3.20;;;;;;;19.80;39.01;96591.69;5014476;28;20033;-30
2022/05/03 10:47:48;;;;;;;4.80;3.33;;;;;;;19.86;38.91;96596.03;5011919;28;20046;-30
2022/05/03 10:50:16;;;;;;;4.65;3.47;;;;;;;19.88;38.78;96592.78;5014036;28;20061;-30
2022/05/03 10:53:05;;;;;;;5.97;3.70;;;;;;;19.79;38.97;96590.16;5014144;28;20481;-30
2022/05/03 10:55:33;;;;;;;3.65;3.20;;;;;;;19.75;39.26;96595.13;5014001;28;20029;-30
2022/05/03 10:58:26;;;;;;;4.90;3.40;;;;;;;19.82;38.86;96589.97;5013969;28;20076;-32
2022/05/03 11:01:10;;;;;;;5.65;3.22;;;;;;;19.86;38.87;96595.25;5013922;28;20053;-31
2022/05/03 11:03:48;;;;;;;3.90;3.13;;;;;;;19.89;38.76;96588.81;5013905;28;20030;-29
2022/05/03 11:06:40;;;;;;;5.47;3.53;;;;;;;19.86;38.89;96589.75;5013795;28;20026;-30
2022/05/03 11:11:37;;;;;;;6.70;4.43;;;;;;;19.92;38.90;96587.81;5013957;28;20032;-31
2022/05/03 11:14:24;;;;;;;6.40;4.63;;;;;;;19.94;38.77;96583.34;5014011;28;20029;-30
2022/05/03 11:17:04;;;;;;;5.97;4.10;;;;;;;19.82;39.06;96589.97;5006765;28;20480;-30
2022/05/03 11:19:31;;;;;;;6.18;4.40;;;;;;;19.93;38.93;96579.06;5013802;28;20365;-30
2022/05/03 11:21:59;;;;;;;5.45;4.35;;;;;;;19.83;39.10;96579.72;5013304;28;20026;-31
2022/05/03 11:24:30;;;;;;;10.40;4.85;;;;;;;20.15;38.46;96577.81;5013607;28;20025;-31
2022/05/03 11:26:58;;;;;;;30.85;8.30;;;;;;;19.91;39.14;96580.78;5013534;28;20026;-30
2022/05/03 11:29:28;;;;;;;71.20;9.18;;;;;;;19.97;39.22;96574.13;5013352;28;20121;-30
2022/05/03 11:31:55;;;;;;;41.80;7.28;;;;;;;20.08;38.91;96568.72;5013842;28;20030;-30
2022/05/03 11:34:21;;;;;;;37.90;8.40;;;;;;;19.97;39.09;96567.84;5013690;28;20113;-31
2022/05/03 11:36:50;;;;;;;23.00;7.20;;;;;;;20.06;38.98;96571.19;5013520;28;20108;-30
2022/05/03 11:39:16;;;;;;;30.80;8.02;;;;;;;20.09;39.06;96566.72;5013283;28;20018;-32
2022/05/03 11:41:44;;;;;;;31.80;7.10;;;;;;;20.05;39.04;96566.19;5013482;28;20457;-30
2022/05/03 11:44:11;;;;;;;17.20;5.85;;;;;;;20.08;38.85;96570.72;5013465;28;20112;-30
2022/05/03 11:46:38;;;;;;;19.45;6.18;;;;;;;19.99;39.21;96570.88;5013474;28;20034;-30
2022/05/03 11:49:08;;;;;;;17.15;5.80;;;;;;;20.11;38.91;96569.00;5013077;28;20050;-30
2022/05/03 11:57:24;;;;;;;11.25;4.80;;;;;;;20.11;38.71;96575.25;5013981;28;20037;-30
2022/05/03 11:59:51;;;;;;;10.05;4.47;;;;;;;20.12;38.56;96574.03;5013584;28;20065;-30
2022/05/03 12:02:30;;;;;;;9.60;4.80;;;;;;;20.12;38.65;96579.53;5010098;28;20034;-30
2022/05/03 12:05:04;;;;;;;8.65;5.10;;;;;;;20.12;38.54;96576.78;5011195;28;20017;-30
2022/05/03 12:07:40;;;;;;;8.55;4.68;;;;;;;20.10;38.71;96571.00;5011231;28;20040;-30
2022/05/03 12:10:19;;;;;;;10.88;4.68;;;;;;;20.11;38.70;96572.50;5008792;28;20026;-30
2022/05/03 12:13:07;;;;;;;8.05;4.20;;;;;;;20.03;38.83;96579.66;5026090;28;20037;-30
2022/05/03 12:15:47;;;;;;;7.95;4.28;;;;;;;20.09;38.46;96572.22;5011093;28;20484;-31
2022/05/03 12:18:23;;;;;;;9.25;4.05;;;;;;;20.03;38.61;96565.91;5011320;28;20032;-30
2022/05/03 12:20:53;;;;;;;4.75;4.20;;;;;;;20.14;38.44;96579.81;4991554;28;20476;-31
2022/05/03 12:23:41;;;;;;;9.65;4.78;;;;;;;20.07;38.56;96577.47;4991275;28;20018;-31
2022/05/03 12:26:16;;;;;;;6.10;4.13;;;;;;;20.13;38.38;96567.28;4990706;28;20492;-30